createdAt,value
2018-03-21T00:00:39.308Z,0.28
2018-03-21T00:01:42.666Z,0.28
2018-03-21T00:02:45.994Z,0.29
2018-03-21T00:03:49.775Z,0.27
2018-03-21T00:04:53.026Z,0.25
2018-03-21T00:05:56.357Z,0.23
2018-03-21T00:06:59.831Z,0.23
2018-03-21T00:08:03.150Z,0.23
2018-03-21T00:09:06.362Z,0.20
2018-03-21T00:10:10.223Z,0.18
2018-03-21T00:11:13.546Z,0.16
2018-03-21T00:12:16.763Z,0.15
2018-03-21T00:13:20.795Z,0.13
2018-03-21T00:14:24.053Z,0.08
2018-03-21T00:15:27.412Z,0.06
2018-03-21T00:16:31.062Z,0.01
2018-03-21T00:17:34.640Z,-0.06
2018-03-21T00:18:37.868Z,-0.09
2018-03-21T00:19:40.986Z,-0.11
2018-03-21T00:20:44.226Z,-0.15
2018-03-21T00:21:47.426Z,-0.18
2018-03-21T00:22:51.005Z,-0.20
2018-03-21T00:23:54.292Z,-0.21
2018-03-21T00:24:57.549Z,-0.19
2018-03-21T00:26:00.735Z,-0.15
2018-03-21T00:27:03.891Z,-0.13
2018-03-21T00:28:07.234Z,-0.10
2018-03-21T00:29:10.954Z,-0.08
2018-03-21T00:30:14.328Z,-0.05
2018-03-21T00:31:17.730Z,-0.02
2018-03-21T00:32:21.126Z,0.03
2018-03-21T00:33:24.460Z,-0.03
2018-03-21T00:34:27.844Z,-0.10
2018-03-21T00:35:31.689Z,-0.19
2018-03-21T00:36:35.063Z,-0.26
2018-03-21T00:37:38.459Z,-0.29
2018-03-21T00:38:42.167Z,-0.32
2018-03-21T00:39:45.504Z,-0.36
2018-03-21T00:40:48.914Z,-0.41
2018-03-21T00:41:52.786Z,-0.49
2018-03-21T00:42:56.470Z,-0.53
2018-03-21T00:44:00.058Z,-0.60
2018-03-21T00:45:03.552Z,-0.66
2018-03-21T00:46:06.991Z,-0.70
2018-03-21T00:47:10.401Z,-0.72
2018-03-21T00:48:14.346Z,-0.72
2018-03-21T00:49:17.840Z,-0.72
2018-03-21T00:50:21.418Z,-0.72
2018-03-21T00:51:25.532Z,-0.70
2018-03-21T00:52:29.352Z,-0.66
2018-03-21T00:53:32.926Z,-0.68
2018-03-21T00:54:36.843Z,-0.72
2018-03-21T00:55:40.206Z,-0.73
2018-03-21T00:56:43.573Z,-0.74
2018-03-21T00:57:46.968Z,-0.79
2018-03-21T00:58:50.696Z,-0.83
2018-03-21T00:59:54.380Z,-0.91
2018-03-21T01:00:58.435Z,-1.02
2018-03-21T01:02:02.041Z,-1.07
2018-03-21T01:03:05.623Z,-1.09
2018-03-21T01:04:09.286Z,-1.11
2018-03-21T01:05:12.880Z,-1.14
2018-03-21T01:06:16.281Z,-1.11
2018-03-21T01:07:20.130Z,-1.11
2018-03-21T01:08:23.898Z,-1.10
2018-03-21T01:09:27.373Z,-1.12
2018-03-21T01:10:30.949Z,-1.12
2018-03-21T01:11:34.532Z,-1.13
2018-03-21T01:12:37.971Z,-1.12
2018-03-21T01:13:41.964Z,-1.10
2018-03-21T01:14:45.493Z,-1.11
2018-03-21T01:15:49.028Z,-1.17
2018-03-21T01:16:52.564Z,-1.24
2018-03-21T01:17:56.262Z,-1.32
2018-03-21T01:18:59.776Z,-1.37
2018-03-21T01:20:03.643Z,-1.39
2018-03-21T01:21:07.126Z,-1.43
2018-03-21T01:22:10.666Z,-1.47
2018-03-21T01:23:14.259Z,-1.47
2018-03-21T01:24:17.783Z,-1.51
2018-03-21T01:25:21.450Z,-1.55
2018-03-21T01:26:25.229Z,-1.59
2018-03-21T01:27:28.754Z,-1.62
2018-03-21T01:28:32.408Z,-1.64
2018-03-21T01:29:35.761Z,-1.67
2018-03-21T01:30:39.438Z,-1.67
2018-03-21T01:31:42.871Z,-1.68
2018-03-21T01:32:46.738Z,-1.69
2018-03-21T01:33:50.345Z,-1.73
2018-03-21T01:34:53.929Z,-1.74
2018-03-21T01:35:57.715Z,-1.75
2018-03-21T01:37:01.575Z,-1.76
2018-03-21T01:38:05.511Z,-1.78
2018-03-21T01:39:09.637Z,-1.82
2018-03-21T01:40:13.051Z,-1.80
2018-03-21T01:41:16.593Z,-1.74
2018-03-21T01:42:19.926Z,-1.67
2018-03-21T01:43:23.494Z,-1.61
2018-03-21T01:44:27.524Z,-1.54
2018-03-21T01:45:31.107Z,-1.47
2018-03-21T01:46:34.572Z,-1.41
2018-03-21T01:47:37.842Z,-1.35
2018-03-21T01:48:41.247Z,-1.29
2018-03-21T01:49:44.732Z,-1.28
2018-03-21T01:50:48.410Z,-1.30
2018-03-21T01:51:52.068Z,-1.34
2018-03-21T01:52:55.613Z,-1.38
2018-03-21T01:53:59.204Z,-1.46
2018-03-21T01:55:02.725Z,-1.56
2018-03-21T01:56:06.229Z,-1.67
2018-03-21T01:57:10.163Z,-1.74
2018-03-21T01:58:13.644Z,-1.81
2018-03-21T01:59:17.231Z,-1.83
2018-03-21T02:00:20.780Z,-1.90
2018-03-21T02:01:24.476Z,-1.98
2018-03-21T02:02:28.155Z,-2.08
2018-03-21T02:03:32.027Z,-2.16
2018-03-21T02:04:35.832Z,-2.23
2018-03-21T02:05:39.375Z,-2.24
2018-03-21T02:06:42.528Z,-2.21
2018-03-21T02:07:46.142Z,-2.18
2018-03-21T02:08:49.430Z,-2.15
2018-03-21T02:09:53.228Z,-2.10
2018-03-21T02:10:56.869Z,-2.04
2018-03-21T02:12:00.272Z,-1.98
2018-03-21T02:13:03.630Z,-1.92
2018-03-21T02:14:07.046Z,-1.92
2018-03-21T02:15:10.556Z,-1.95
2018-03-21T02:16:14.451Z,-1.94
2018-03-21T02:17:18.213Z,-1.91
2018-03-21T02:18:21.527Z,-1.87
2018-03-21T02:19:24.768Z,-1.83
2018-03-21T02:20:28.058Z,-1.89
2018-03-21T02:21:31.491Z,-1.92
2018-03-21T02:22:35.020Z,-1.92
2018-03-21T02:23:38.503Z,-1.90
2018-03-21T02:24:42.431Z,-1.85
2018-03-21T02:25:45.943Z,-1.78
2018-03-21T02:26:49.385Z,-1.82
2018-03-21T02:27:52.575Z,-1.87
2018-03-21T02:28:56.202Z,-1.91
2018-03-21T02:30:00.500Z,-1.97
2018-03-21T02:31:03.908Z,-2.06
2018-03-21T02:32:07.589Z,-2.10
2018-03-21T02:33:10.944Z,-2.18
2018-03-21T02:34:15.129Z,-2.26
2018-03-21T02:35:19.021Z,-2.29
2018-03-21T02:36:22.361Z,-2.29
2018-03-21T02:37:25.521Z,-2.32
2018-03-21T02:38:28.746Z,-2.37
2018-03-21T02:39:32.224Z,-2.43
2018-03-21T02:40:35.357Z,-2.53
2018-03-21T02:41:39.053Z,-2.62
2018-03-21T02:42:42.458Z,-2.67
2018-03-21T02:43:46.364Z,-2.66
2018-03-21T02:44:49.714Z,-2.58
2018-03-21T02:45:53.147Z,-2.51
2018-03-21T02:46:56.570Z,-2.47
2018-03-21T02:48:00.761Z,-2.41
2018-03-21T02:49:04.268Z,-2.37
2018-03-21T02:50:07.482Z,-2.32
2018-03-21T02:51:10.900Z,-2.27
2018-03-21T02:52:14.217Z,-2.22
2018-03-21T02:53:17.522Z,-2.20
2018-03-21T02:54:21.813Z,-2.22
2018-03-21T02:55:25.241Z,-2.20
2018-03-21T02:56:29.762Z,-2.20
2018-03-21T02:57:33.266Z,-2.19
2018-03-21T02:58:36.522Z,-2.18
2018-03-21T02:59:39.888Z,-2.16
2018-03-21T03:00:43.479Z,-2.15
2018-03-21T03:01:46.774Z,-2.16
2018-03-21T03:02:49.989Z,-2.18
2018-03-21T03:03:53.575Z,-2.18
2018-03-21T03:04:57.014Z,-2.18
2018-03-21T03:06:00.373Z,-2.20
2018-03-21T03:07:04.063Z,-2.28
2018-03-21T03:08:07.691Z,-2.41
2018-03-21T03:09:10.976Z,-2.52
2018-03-21T03:10:14.566Z,-2.58
2018-03-21T03:11:17.936Z,-2.63
2018-03-21T03:12:21.125Z,-2.68
2018-03-21T03:13:24.719Z,-2.72
2018-03-21T03:14:28.049Z,-2.74
2018-03-21T03:15:31.286Z,-2.80
2018-03-21T03:16:34.671Z,-2.92
2018-03-21T03:17:38.030Z,-2.97
2018-03-21T03:18:41.258Z,-3.01
2018-03-21T03:19:44.936Z,-3.01
2018-03-21T03:20:48.260Z,-2.98
2018-03-21T03:21:51.362Z,-2.98
2018-03-21T03:22:54.411Z,-2.99
2018-03-21T03:23:57.613Z,-3.00
2018-03-21T03:25:00.858Z,-3.03
2018-03-21T03:26:04.390Z,-3.05
2018-03-21T03:27:07.368Z,-3.03
2018-03-21T03:28:10.730Z,-2.97
2018-03-21T03:29:14.009Z,-2.94
2018-03-21T03:30:17.257Z,-2.95
2018-03-21T03:31:20.750Z,-2.92
2018-03-21T03:32:24.524Z,-2.86
2018-03-21T03:33:27.602Z,-2.78
2018-03-21T03:34:30.862Z,-2.70
2018-03-21T03:35:34.036Z,-2.63
2018-03-21T03:36:37.112Z,-2.56
2018-03-21T03:37:40.284Z,-2.51
2018-03-21T03:38:43.962Z,-2.44
2018-03-21T03:39:47.281Z,-2.42
2018-03-21T03:40:50.510Z,-2.42
2018-03-21T03:41:53.730Z,-2.41
2018-03-21T03:42:56.842Z,-2.40
2018-03-21T03:44:00.147Z,-2.43
2018-03-21T03:45:03.774Z,-2.46
2018-03-21T03:46:07.217Z,-2.56
2018-03-21T03:47:10.625Z,-2.62
2018-03-21T03:48:13.974Z,-2.67
2018-03-21T03:49:17.225Z,-2.74
2018-03-21T03:50:20.637Z,-2.80
2018-03-21T03:51:24.390Z,-2.90
2018-03-21T03:52:27.435Z,-3.02
2018-03-21T03:53:30.691Z,-3.09
2018-03-21T03:54:33.937Z,-3.18
2018-03-21T03:55:37.184Z,-3.24
2018-03-21T03:56:40.422Z,-3.26
2018-03-21T03:57:44.151Z,-3.29
2018-03-21T03:58:47.250Z,-3.34
2018-03-21T03:59:50.341Z,-3.37
2018-03-21T04:00:53.439Z,-3.38
2018-03-21T04:01:56.567Z,-3.32
2018-03-21T04:02:59.857Z,-3.23
2018-03-21T04:04:03.535Z,-3.12
2018-03-21T04:05:06.915Z,-3.03
2018-03-21T04:06:10.008Z,-2.95
2018-03-21T04:07:13.236Z,-2.98
2018-03-21T04:08:16.711Z,-3.12
2018-03-21T04:09:20.060Z,-3.26
2018-03-21T04:10:23.618Z,-3.37
2018-03-21T04:11:26.634Z,-3.44
2018-03-21T04:12:29.598Z,-3.50
2018-03-21T04:13:32.722Z,-3.51
2018-03-21T04:14:35.699Z,-3.47
2018-03-21T04:15:38.702Z,-3.44
2018-03-21T04:16:42.450Z,-3.42
2018-03-21T04:17:45.686Z,-3.37
2018-03-21T04:18:48.973Z,-3.31
2018-03-21T04:19:52.132Z,-3.29
2018-03-21T04:20:55.328Z,-3.29
2018-03-21T04:21:58.339Z,-3.36
2018-03-21T04:23:01.932Z,-3.45
2018-03-21T04:24:05.017Z,-3.50
2018-03-21T04:25:08.204Z,-3.51
2018-03-21T04:26:11.554Z,-3.45
2018-03-21T04:27:14.602Z,-3.40
2018-03-21T04:28:17.836Z,-3.32
2018-03-21T04:29:21.163Z,-3.25
2018-03-21T04:30:24.280Z,-3.19
2018-03-21T04:31:27.361Z,-3.13
2018-03-21T04:32:30.528Z,-3.09
2018-03-21T04:33:33.713Z,-3.07
2018-03-21T04:34:36.710Z,-3.01
2018-03-21T04:35:40.181Z,-2.97
2018-03-21T04:36:43.292Z,-2.95
2018-03-21T04:37:46.770Z,-2.94
2018-03-21T04:38:50.068Z,-2.96
2018-03-21T04:39:53.066Z,-3.06
2018-03-21T04:40:56.280Z,-3.13
2018-03-21T04:41:59.830Z,-3.19
2018-03-21T04:43:03.359Z,-3.26
2018-03-21T04:44:06.579Z,-3.30
2018-03-21T04:45:09.689Z,-3.32
2018-03-21T04:46:13.292Z,-3.34
2018-03-21T04:47:16.731Z,-3.32
2018-03-21T04:48:20.304Z,-3.30
2018-03-21T04:49:24.362Z,-3.36
2018-03-21T04:50:27.920Z,-3.43
2018-03-21T04:51:31.454Z,-3.49
2018-03-21T04:52:34.939Z,-3.55
2018-03-21T04:53:38.130Z,-3.59
2018-03-21T04:54:41.506Z,-3.64
2018-03-21T04:55:44.745Z,-3.70
2018-03-21T04:56:48.085Z,-3.73
2018-03-21T04:57:51.754Z,-3.77
2018-03-21T04:58:55.653Z,-3.80
2018-03-21T04:59:59.067Z,-3.85
2018-03-21T05:01:02.465Z,-3.94
2018-03-21T05:02:05.894Z,-3.99
2018-03-21T05:03:09.256Z,-4.03
2018-03-21T05:04:12.719Z,-4.07
2018-03-21T05:05:16.747Z,-4.12
2018-03-21T05:06:20.287Z,-4.10
2018-03-21T05:07:23.622Z,-4.06
2018-03-21T05:08:27.097Z,-4.04
2018-03-21T05:09:30.386Z,-4.06
2018-03-21T05:10:33.900Z,-4.04
2018-03-21T05:11:38.238Z,-4.03
2018-03-21T05:12:41.593Z,-4.04
2018-03-21T05:13:45.109Z,-4.05
2018-03-21T05:14:48.386Z,-4.07
2018-03-21T05:15:51.763Z,-4.08
2018-03-21T05:16:55.133Z,-4.12
2018-03-21T05:17:58.855Z,-4.07
2018-03-21T05:19:02.454Z,-4.00
2018-03-21T05:20:05.802Z,-3.90
2018-03-21T05:21:09.140Z,-3.82
2018-03-21T05:22:12.426Z,-3.76
2018-03-21T05:23:15.965Z,-3.73
2018-03-21T05:24:19.747Z,-3.70
2018-03-21T05:25:23.161Z,-3.73
2018-03-21T05:26:26.701Z,-3.76
2018-03-21T05:27:30.157Z,-3.75
2018-03-21T05:28:33.814Z,-3.76
2018-03-21T05:29:37.321Z,-3.81
2018-03-21T05:30:41.085Z,-3.87
2018-03-21T05:31:44.677Z,-3.88
2018-03-21T05:32:48.023Z,-3.90
2018-03-21T05:33:51.429Z,-3.96
2018-03-21T05:34:54.917Z,-3.99
2018-03-21T05:35:58.740Z,-4.02
2018-03-21T05:37:02.802Z,-3.99
2018-03-21T05:38:06.610Z,-3.99
2018-03-21T05:39:10.325Z,-4.03
2018-03-21T05:40:14.092Z,-4.08
2018-03-21T05:41:17.623Z,-4.07
2018-03-21T05:42:21.709Z,-4.01
2018-03-21T05:43:25.511Z,-3.93
2018-03-21T05:44:29.147Z,-3.87
2018-03-21T05:45:32.543Z,-3.80
2018-03-21T05:46:36.312Z,-3.70
2018-03-21T05:47:39.615Z,-3.64
2018-03-21T05:48:43.745Z,-3.61
2018-03-21T05:49:47.248Z,-3.63
2018-03-21T05:50:50.843Z,-3.65
2018-03-21T05:51:54.380Z,-3.68
2018-03-21T05:52:58.114Z,-3.75
2018-03-21T05:54:01.626Z,-3.73
2018-03-21T05:55:05.566Z,-3.66
2018-03-21T05:56:09.128Z,-3.63
2018-03-21T05:57:12.778Z,-3.63
2018-03-21T05:58:16.342Z,-3.66
2018-03-21T05:59:19.753Z,-3.65
2018-03-21T06:00:23.290Z,-3.64
2018-03-21T06:01:27.119Z,-3.64
2018-03-21T06:02:30.666Z,-3.68
2018-03-21T06:03:34.940Z,-3.70
2018-03-21T06:04:38.442Z,-3.72
2018-03-21T06:05:42.024Z,-3.72
2018-03-21T06:06:45.510Z,-3.65
2018-03-21T06:07:48.992Z,-3.60
2018-03-21T06:08:52.681Z,-3.51
2018-03-21T06:09:55.902Z,-3.33
2018-03-21T06:11:00.077Z,-3.06
2018-03-21T06:12:03.529Z,-2.64
2018-03-21T06:13:07.524Z,-2.02
2018-03-21T06:14:11.185Z,-1.17
2018-03-21T06:15:14.586Z,-0.14
2018-03-21T06:16:18.249Z,0.66
2018-03-21T06:17:22.851Z,1.11
2018-03-21T06:18:26.354Z,1.21
2018-03-21T06:19:30.697Z,0.93
2018-03-21T06:20:34.382Z,0.45
2018-03-21T06:21:38.072Z,0.03
2018-03-21T06:22:41.780Z,-0.23
2018-03-21T06:23:45.166Z,-0.14
2018-03-21T06:24:48.622Z,0.25
2018-03-21T06:25:52.590Z,1.02
2018-03-21T06:26:56.298Z,1.95
2018-03-21T06:27:59.991Z,2.80
2018-03-21T06:29:03.224Z,3.57
2018-03-21T06:30:06.718Z,4.40
2018-03-21T06:31:10.230Z,5.10
2018-03-21T06:32:14.189Z,5.63
2018-03-21T06:33:17.853Z,6.00
2018-03-21T06:34:21.475Z,6.39
2018-03-21T06:35:25.042Z,6.68
2018-03-21T06:36:28.482Z,6.98
2018-03-21T06:37:32.191Z,7.26
2018-03-21T06:38:35.932Z,7.51
2018-03-21T06:39:39.416Z,7.72
2018-03-21T06:40:42.909Z,7.91
2018-03-21T06:41:46.613Z,8.04
2018-03-21T06:42:50.136Z,8.28
2018-03-21T06:43:53.449Z,8.52
2018-03-21T06:44:57.526Z,8.67
2018-03-21T06:46:01.040Z,8.88
2018-03-21T06:47:04.425Z,9.10
2018-03-21T06:48:08.301Z,9.22
2018-03-21T06:49:11.957Z,9.29
2018-03-21T06:50:15.429Z,9.35
2018-03-21T06:51:19.244Z,9.31
2018-03-21T06:52:22.765Z,9.29
2018-03-21T06:53:26.178Z,9.03
2018-03-21T06:54:29.879Z,8.38
2018-03-21T06:55:33.484Z,7.49
2018-03-21T06:56:37.080Z,6.37
2018-03-21T06:57:40.774Z,5.24
2018-03-21T06:58:45.308Z,4.50
2018-03-21T06:59:48.849Z,4.00
2018-03-21T07:00:52.539Z,3.66
2018-03-21T07:01:56.196Z,3.38
2018-03-21T07:03:00.200Z,3.36
2018-03-21T07:04:04.249Z,3.60
2018-03-21T07:05:07.734Z,4.07
2018-03-21T07:06:11.295Z,4.72
2018-03-21T07:07:14.947Z,5.59
2018-03-21T07:08:18.410Z,6.49
2018-03-21T07:09:21.971Z,7.18
2018-03-21T07:10:25.728Z,7.96
2018-03-21T07:11:29.308Z,8.77
2018-03-21T07:12:32.944Z,9.46
2018-03-21T07:13:36.478Z,10.23
2018-03-21T07:14:40.609Z,10.69
2018-03-21T07:15:44.014Z,10.57
2018-03-21T07:16:47.762Z,10.86
2018-03-21T07:17:51.318Z,10.89
2018-03-21T07:18:54.891Z,11.28
2018-03-21T07:19:58.311Z,11.52
2018-03-21T07:21:01.857Z,11.82
2018-03-21T07:22:05.450Z,12.28
2018-03-21T07:23:09.291Z,12.63
2018-03-21T07:24:12.807Z,12.89
2018-03-21T07:25:16.242Z,13.09
2018-03-21T07:26:19.808Z,12.84
2018-03-21T07:27:23.414Z,12.59
2018-03-21T07:28:26.995Z,12.75
2018-03-21T07:29:30.744Z,12.43
2018-03-21T07:30:34.050Z,12.39
2018-03-21T07:31:37.616Z,12.40
2018-03-21T07:32:41.232Z,12.05
2018-03-21T07:33:44.745Z,11.66
2018-03-21T07:34:48.243Z,11.48
2018-03-21T07:35:52.136Z,11.15
2018-03-21T07:36:55.887Z,10.96
2018-03-21T07:37:59.338Z,10.68
2018-03-21T07:39:03.086Z,10.41
2018-03-21T07:40:06.567Z,10.57
2018-03-21T07:41:10.051Z,10.18
2018-03-21T07:42:13.802Z,9.84
2018-03-21T07:43:17.194Z,9.61
2018-03-21T07:44:20.614Z,9.62
2018-03-21T07:45:25.518Z,9.72
2018-03-21T07:46:28.907Z,9.75
2018-03-21T07:47:33.046Z,9.73
2018-03-21T07:48:36.786Z,9.59
2018-03-21T07:49:39.985Z,9.52
2018-03-21T07:50:43.345Z,9.49
2018-03-21T07:51:46.731Z,9.07
2018-03-21T07:52:50.029Z,8.48
2018-03-21T07:53:53.724Z,7.78
2018-03-21T07:54:57.683Z,7.37
2018-03-21T07:56:01.271Z,7.24
2018-03-21T07:57:04.801Z,7.23
2018-03-21T07:58:08.919Z,7.30
2018-03-21T07:59:12.187Z,7.48
2018-03-21T08:00:15.632Z,7.10
2018-03-21T08:01:19.888Z,7.00
2018-03-21T08:02:23.326Z,7.18
2018-03-21T08:03:26.816Z,7.17
2018-03-21T08:04:30.130Z,7.19
2018-03-21T08:05:33.541Z,7.34
2018-03-21T08:06:36.998Z,6.78
2018-03-21T08:07:41.012Z,6.51
2018-03-21T08:08:44.448Z,6.67
2018-03-21T08:09:47.810Z,6.58
2018-03-21T08:10:51.213Z,6.70
2018-03-21T08:11:54.636Z,6.93
2018-03-21T08:12:58.674Z,7.20
2018-03-21T08:14:02.453Z,7.28
2018-03-21T08:15:05.783Z,7.38
2018-03-21T08:16:10.123Z,7.46
2018-03-21T08:17:13.682Z,7.80
2018-03-21T08:18:16.994Z,8.07
2018-03-21T08:19:20.685Z,8.22
2018-03-21T08:20:24.490Z,8.18
2018-03-21T08:21:27.873Z,8.18
2018-03-21T08:22:31.139Z,8.24
2018-03-21T08:23:35.139Z,7.99
2018-03-21T08:24:38.462Z,8.01
2018-03-21T08:25:41.803Z,7.91
2018-03-21T08:26:45.381Z,7.65
2018-03-21T08:27:48.807Z,7.45
2018-03-21T08:28:52.381Z,7.28
2018-03-21T08:29:55.852Z,7.05
2018-03-21T08:30:59.525Z,7.00
2018-03-21T08:32:03.078Z,6.91
2018-03-21T08:33:07.006Z,6.70
2018-03-21T08:34:10.340Z,6.82
2018-03-21T08:35:13.654Z,6.96
2018-03-21T08:36:17.972Z,7.17
2018-03-21T08:37:21.372Z,7.26
2018-03-21T08:38:24.569Z,7.42
2018-03-21T08:39:28.324Z,7.16
2018-03-21T08:40:31.568Z,7.25
2018-03-21T08:41:35.731Z,7.69
2018-03-21T08:42:39.021Z,7.96
2018-03-21T08:43:42.346Z,7.89
2018-03-21T08:44:45.728Z,7.74
2018-03-21T08:45:49.517Z,7.90
2018-03-21T08:46:52.805Z,8.03
2018-03-21T08:47:56.192Z,8.27
2018-03-21T08:48:59.497Z,8.66
2018-03-21T08:50:02.854Z,9.05
2018-03-21T08:51:06.128Z,9.45
2018-03-21T08:52:09.880Z,9.65
2018-03-21T08:53:13.335Z,9.82
2018-03-21T08:54:16.796Z,10.00
2018-03-21T08:55:20.152Z,9.73
2018-03-21T08:56:23.505Z,9.85
2018-03-21T08:57:26.834Z,9.88
2018-03-21T08:58:31.061Z,9.78
2018-03-21T08:59:34.531Z,9.89
2018-03-21T09:00:37.856Z,9.60
2018-03-21T09:01:41.158Z,9.37
2018-03-21T09:02:44.486Z,9.63
2018-03-21T09:03:47.961Z,9.65
2018-03-21T09:04:51.713Z,9.43
2018-03-21T09:05:55.012Z,9.43
2018-03-21T09:06:58.358Z,9.35
2018-03-21T09:08:01.949Z,9.20
2018-03-21T09:09:05.362Z,9.58
2018-03-21T09:10:08.706Z,9.50
2018-03-21T09:11:12.469Z,9.66
2018-03-21T09:12:17.732Z,9.90
2018-03-21T09:13:21.036Z,9.82
2018-03-21T09:14:24.389Z,9.78
2018-03-21T09:15:28.834Z,9.96
2018-03-21T09:16:32.079Z,9.89
2018-03-21T09:17:35.777Z,9.82
2018-03-21T09:18:39.055Z,9.82
2018-03-21T09:19:42.428Z,9.25
2018-03-21T09:20:45.779Z,9.13
2018-03-21T09:21:49.187Z,8.81
2018-03-21T09:22:52.543Z,8.87
2018-03-21T09:23:55.658Z,9.07
2018-03-21T09:24:59.009Z,9.39
2018-03-21T09:26:02.388Z,9.59
2018-03-21T09:27:05.854Z,9.86
2018-03-21T09:28:09.093Z,9.60
2018-03-21T09:29:12.466Z,9.37
2018-03-21T09:30:15.835Z,9.29
2018-03-21T09:31:19.212Z,9.61
2018-03-21T09:32:22.841Z,9.64
2018-03-21T09:33:27.314Z,9.76
2018-03-21T09:34:30.961Z,9.57
2018-03-21T09:35:35.116Z,9.08
2018-03-21T09:36:38.446Z,9.23
2018-03-21T09:37:41.833Z,9.05
2018-03-21T09:38:45.327Z,8.98
2018-03-21T09:39:48.707Z,9.28
2018-03-21T09:40:52.420Z,9.86
2018-03-21T09:41:55.682Z,10.37
2018-03-21T09:42:59.034Z,10.68
2018-03-21T09:44:03.110Z,10.69
2018-03-21T09:45:06.568Z,10.45
2018-03-21T09:46:09.926Z,10.58
2018-03-21T09:47:13.642Z,10.47
2018-03-21T09:48:16.991Z,10.78
2018-03-21T09:49:20.364Z,10.98
2018-03-21T09:50:23.624Z,10.93
